Thunderstorms From: 22-05-2018 15:00 Until: 23-05-2018 15:00 warning for: Thunderstorms Level: Yellow info button

Although rather usual in this region, locally or potentially dangerous phenomena are expected. (such as local winds, summer thunderstorms, rising streams or high waves) Be aware and pay attention to the latest weather updates, especially if you carry out activities exposed to weather or close to a stream or shoreline. 


Meteo18 Weather Cam more information Meteo18 Weather Cam


warning for Thunderstorms more information blitzortung!


Rain radar more information rain snow radar


Visit our other weather sites:

Template documentation
and downloads

And another site



Weather Underground History page Text

Daily Summary for December 16, 2017 Units:  Metric    English   Both
« Previous Day
Next Day »
Daily Weekly Monthly Yearly Custom
  High: Low: Average:
Temperature: -17.8 °C -17 °C -15.9 °C
Dew Point: -17.8 °C -17.7 °C -16.8 °C
Humidity: Humidity % 79 % 89 %
Wind Speed: 0 km/h 0 km/h 11.4 km/h
Wind Gust: 0 km/h - -
Wind:- - WNW
Pressure: 0 hPa 34097 hPa -
Precipitation: 58.42 mm    
Historical Graphs
 
 
Tabular Data for December 16, 2017
Time Temperature Dew Point Pressure Wind Wind Speed Wind Gust Humidity Rainfall Rate (Hourly)
-17.8 °C -17.8 °C 0 hPa Calm     Humidity % 0 mm
00:02 -16.1 °C -16.7 °C 34097 hPa Calm   36.2 km/h 92 % 12.7 mm
00:07 -16.1 °C -16.7 °C 34097 hPa WNW 12.9 km/h 36.2 km/h 92 % 12.7 mm
00:12 -16 °C -16.7 °C 34097 hPa NW 7.7 km/h 25.9 km/h 92 % 12.7 mm
00:17 -16 °C -16.6 °C 34097 hPa WNW 15.6 km/h 25.9 km/h 93 % 12.7 mm
00:22 -15.9 °C -16.6 °C 34097 hPa WNW 10.3 km/h 25.9 km/h 92 % 12.7 mm
00:32 -15.9 °C -16.6 °C 34097 hPa WNW 20.8 km/h 41.4 km/h 92 % 12.7 mm
00:42 -16 °C -16.7 °C 34097 hPa NNW 10.3 km/h 28.5 km/h 92 % 12.7 mm
00:47 -16 °C -16.7 °C 34097 hPa WNW 20.8 km/h 28.5 km/h 92 % 12.7 mm
00:57 -15.9 °C -16.6 °C 34107.2 hPa West 10.3 km/h 46.7 km/h 92 % 7.62 mm
01:02 -15.9 °C -16.6 °C 34107.2 hPa NW 20.8 km/h 46.7 km/h 92 % 7.62 mm
01:07 -15.9 °C -16.6 °C 34107.2 hPa NW 15.6 km/h 46.7 km/h 92 % 12.7 mm
01:12 -16 °C -16.7 °C 34107.2 hPa WNW 10.3 km/h 46.7 km/h 92 % 20.32 mm
01:17 -16 °C -16.6 °C 34107.2 hPa WNW 20.8 km/h 46.7 km/h 93 % 20.32 mm
01:22 -15.9 °C -16.5 °C 34120.7 hPa West 15.6 km/h 41.4 km/h 93 % 20.32 mm
01:27 -15.9 °C -16.5 °C 34120.7 hPa WNW 20.8 km/h 41.4 km/h 93 % 25.4 mm
01:32 -15.9 °C -16.5 °C 34120.7 hPa WNW 18.2 km/h 41.4 km/h 93 % 25.4 mm
01:42 -16.1 °C -16.7 °C 34120.7 hPa NW 7.7 km/h 62.1 km/h 92 % 25.4 mm
01:47 -16.1 °C -16.6 °C 34130.9 hPa NW 12.9 km/h 62.1 km/h 93 % 25.4 mm
01:52 -16 °C -16.6 °C 34130.9 hPa WNW 31.1 km/h 46.7 km/h 93 % 25.4 mm
02:02 -16 °C -16.6 °C 34130.9 hPa NNW 5.1 km/h 46.7 km/h 93 % 25.4 mm
02:12 -15.9 °C -16.5 °C 34144.4 hPa WNW 7.7 km/h 41.4 km/h 93 % 12.7 mm
02:22 -15.9 °C -16.5 °C 34144.4 hPa WSW 7.7 km/h 36.2 km/h 93 % 20.32 mm
02:27 -15.9 °C -16.5 °C 34154.6 hPa WNW 18.2 km/h 36.2 km/h 93 % 12.7 mm
02:32 -15.9 °C -16.4 °C 34154.6 hPa WNW 25.9 km/h 36.2 km/h 93 % 12.7 mm
02:37 -15.9 °C -16.4 °C 34154.6 hPa NNW 5.1 km/h 28.5 km/h 93 % 12.7 mm
02:42 -15.9 °C -16.4 °C 34154.6 hPa NNW 15.6 km/h 28.5 km/h 93 % 12.7 mm
02:47 -15.8 °C -16.4 °C 34154.6 hPa WNW 15.6 km/h 31.1 km/h 93 % 12.7 mm
02:52 -15.8 °C -16.4 °C 34164.7 hPa NW 20.8 km/h 38.8 km/h 93 % 12.7 mm
02:57 -15.8 °C -16.4 °C 34164.7 hPa NNW 10.3 km/h 38.8 km/h 93 % 7.62 mm
03:02 -15.8 °C -16.4 °C 34164.7 hPa West 15.6 km/h 38.8 km/h 93 % 12.7 mm
03:07 -15.8 °C -16.4 °C 34164.7 hPa NNW 15.6 km/h 38.8 km/h 93 % 12.7 mm
03:12 -15.8 °C -16.4 °C 34178.3 hPa NW 28.5 km/h 38.8 km/h 93 % 12.7 mm
03:17 -15.8 °C -16.4 °C 34178.3 hPa WNW 15.6 km/h 38.8 km/h 92 % 12.7 mm
03:22 -15.8 °C -16.5 °C 34178.3 hPa NW 20.8 km/h 36.2 km/h 92 % 7.62 mm
03:27 -15.8 °C -16.5 °C 34178.3 hPa NW 20.8 km/h 36.2 km/h 92 % 7.62 mm
03:32 -15.8 °C -16.5 °C 34188.4 hPa WNW 15.6 km/h 36.2 km/h 92 % 7.62 mm
03:37 -15.8 °C -16.4 °C 34188.4 hPa NNW 10.3 km/h 28.5 km/h 92 % 7.62 mm
03:42 -15.8 °C -16.4 °C 34188.4 hPa NW 20.8 km/h 36.2 km/h 92 % 7.62 mm
03:47 -15.7 °C -16.4 °C 34198.6 hPa NW 5.1 km/h 36.2 km/h 92 % 7.62 mm
03:52 -15.7 °C -16.4 °C 34188.4 hPa NNW 10.3 km/h 36.2 km/h 92 % 7.62 mm
03:57 -15.7 °C -16.4 °C 34198.6 hPa NNW 25.9 km/h 44.1 km/h 91 % 7.62 mm
04:02 -15.7 °C -16.4 °C 34198.6 hPa North 15.6 km/h 44.1 km/h 91 % 0 mm
04:17 -15.7 °C -16.5 °C 34198.6 hPa WNW 5.1 km/h 33.6 km/h 90 % 0 mm
04:22 -15.7 °C -16.6 °C 34212.1 hPa NW 10.3 km/h 33.6 km/h 90 % 0 mm
04:27 -15.8 °C -16.6 °C 34212.1 hPa WNW 10.3 km/h 33.6 km/h 90 % 0 mm
04:32 -15.8 °C -16.5 °C 34222.3 hPa WNW 7.7 km/h 33.6 km/h 91 % 0 mm
04:37 -15.8 °C -16.5 °C 34222.3 hPa NNW 25.9 km/h 25.9 km/h 91 % 0 mm
04:42 -15.7 °C -16.4 °C 34222.3 hPa WNW 23.3 km/h 38.8 km/h 91 % 0 mm
04:47 -15.7 °C -16.4 °C 34222.3 hPa WNW 15.6 km/h 38.8 km/h 91 % 0 mm
04:52 -15.7 °C -16.4 °C 34235.8 hPa West 10.3 km/h 38.8 km/h 91 % 0 mm
04:57 -15.7 °C -16.4 °C 34235.8 hPa WNW 18.2 km/h 36.2 km/h 91 % 0 mm
05:02 -15.7 °C -16.4 °C 34235.8 hPa WNW 15.6 km/h 36.2 km/h 91 % 0 mm
05:12 -15.7 °C -16.4 °C 34246 hPa NW 20.8 km/h 33.6 km/h 91 % 0 mm
05:17 -15.8 °C -16.5 °C 34246 hPa NW 7.7 km/h 36.2 km/h 91 % 0 mm
05:22 -15.8 °C -16.4 °C 34246 hPa NW 12.9 km/h 36.2 km/h 92 % 0 mm
05:27 -15.8 °C -16.4 °C 34256.2 hPa West 20.8 km/h 36.2 km/h 92 % 0 mm
05:32 -15.8 °C -16.4 °C 34256.2 hPa NW 15.6 km/h 36.2 km/h 92 % 0 mm
05:37 -15.8 °C -16.4 °C 34256.2 hPa NNW 10.3 km/h 31.1 km/h 92 % 0 mm
05:42 -15.8 °C -16.4 °C 34256.2 hPa NW 10.3 km/h 31.1 km/h 92 % 0 mm
05:52 -15.8 °C -16.4 °C 34256.2 hPa NNW 10.3 km/h 33.6 km/h 92 % 0 mm
05:57 -15.8 °C -16.4 °C 34269.7 hPa WNW 15.6 km/h 33.6 km/h 92 % 0 mm
06:02 -15.8 °C -16.5 °C 34269.7 hPa NNW 18.2 km/h 33.6 km/h 92 % 0 mm
06:07 -15.8 °C -16.4 °C 34269.7 hPa NNW 15.6 km/h 28.5 km/h 93 % 7.62 mm
06:17 -15.8 °C -16.4 °C 34269.7 hPa WNW 18.2 km/h 36.2 km/h 93 % 7.62 mm
06:22 -15.8 °C -16.5 °C 34269.7 hPa NNW 10.3 km/h 36.2 km/h 92 % 7.62 mm
06:32 -15.9 °C -16.6 °C 34279.9 hPa WNW 23.3 km/h 36.2 km/h 92 % 7.62 mm
06:37 -15.9 °C -16.6 °C 34293.4 hPa WNW 20.8 km/h 36.2 km/h 92 % 7.62 mm
06:42 -15.9 °C -16.6 °C 34293.4 hPa NW 23.3 km/h 36.2 km/h 92 % 7.62 mm
06:52 -15.9 °C -16.6 °C 34293.4 hPa WNW 18.2 km/h 31.1 km/h 92 % 7.62 mm
07:02 -15.9 °C -16.6 °C 34293.4 hPa WNW 31.1 km/h 31.1 km/h 92 % 7.62 mm
07:12 -15.8 °C -16.5 °C 34303.6 hPa NW 10.3 km/h 41.4 km/h 91 % 0 mm
07:17 -15.8 °C -16.5 °C 34303.6 hPa NNW 23.3 km/h 41.4 km/h 91 % 0 mm
07:22 -15.8 °C -16.5 °C 34303.6 hPa WSW 5.1 km/h 33.6 km/h 91 % 0 mm
07:27 -15.8 °C -16.5 °C 34303.6 hPa West 18.2 km/h 33.6 km/h 91 % 0 mm
07:32 -15.8 °C -16.6 °C 34303.6 hPa NW 25.9 km/h 33.6 km/h 91 % 0 mm
07:37 -15.8 °C -16.6 °C 34313.7 hPa WNW 15.6 km/h 31.1 km/h 91 % 0 mm
07:42 -15.8 °C -16.6 °C 34313.7 hPa WNW 20.8 km/h 31.1 km/h 91 % 0 mm
07:47 -15.8 °C -16.6 °C 34327.3 hPa NNW 10.3 km/h 33.6 km/h 91 % 0 mm
07:52 -15.8 °C -16.5 °C 34327.3 hPa NW 10.3 km/h 33.6 km/h 91 % 0 mm
07:57 -15.8 °C -16.5 °C 34327.3 hPa NW 12.9 km/h 38.8 km/h 91 % 0 mm
08:02 -15.8 °C -16.5 °C 34327.3 hPa WNW 10.3 km/h 38.8 km/h 91 % 0 mm
08:07 -15.8 °C -16.5 °C 34327.3 hPa WNW 10.3 km/h 33.6 km/h 91 % 0 mm
08:12 -15.8 °C -16.5 °C 34327.3 hPa NW 15.6 km/h 33.6 km/h 91 % 0 mm
08:17 -15.8 °C -16.5 °C 34327.3 hPa NW 15.6 km/h 36.2 km/h 91 % 0 mm
08:27 -15.8 °C -16.5 °C 34337.4 hPa WNW 18.2 km/h 36.2 km/h 91 % 0 mm
08:32 -15.8 °C -16.6 °C 34337.4 hPa NW 12.9 km/h 36.2 km/h 91 % 0 mm
08:42 -15.8 °C -16.6 °C 34347.6 hPa NW 7.7 km/h 28.5 km/h 91 % 0 mm
08:47 -15.8 °C -16.6 °C 34347.6 hPa WNW 5.1 km/h 31.1 km/h 91 % 0 mm
08:52 -15.8 °C -16.5 °C 34361.1 hPa WNW 18.2 km/h 31.1 km/h 92 % 0 mm
09:02 -15.9 °C -16.6 °C 34371.3 hPa WNW 10.3 km/h 31.1 km/h 92 % 0 mm
09:12 -15.9 °C -16.6 °C 34371.3 hPa NNW 7.7 km/h 33.6 km/h 92 % 0 mm
09:17 -15.9 °C -16.6 °C 34371.3 hPa WNW 18.2 km/h 31.1 km/h 92 % 0 mm
09:22 -15.9 °C -16.6 °C 34384.8 hPa WNW 18.2 km/h 31.1 km/h 92 % 0 mm
09:32 -15.8 °C -16.5 °C 34384.8 hPa WNW 10.3 km/h 28.5 km/h 92 % 0 mm
09:42 -15.8 °C -16.6 °C 34395 hPa NW 12.9 km/h 28.5 km/h 91 % 0 mm
09:52 -15.8 °C -16.6 °C 34405.1 hPa NNW 7.7 km/h 41.4 km/h 91 % 0 mm
09:57 -15.8 °C -16.6 °C 34405.1 hPa WNW 15.6 km/h 38.8 km/h 91 % 0 mm
10:02 -15.8 °C -16.6 °C 34405.1 hPa WNW 12.9 km/h 38.8 km/h 91 % 0 mm
10:07 -15.8 °C -16.6 °C 34405.1 hPa North 7.7 km/h 31.1 km/h 91 % 0 mm
10:12 -15.8 °C -16.6 °C 34418.7 hPa WNW 10.3 km/h 31.1 km/h 91 % 0 mm
10:22 -15.8 °C -16.5 °C 34418.7 hPa West 7.7 km/h 28.5 km/h 91 % 0 mm
10:27 -15.8 °C -16.5 °C 34428.8 hPa WNW 12.9 km/h 33.6 km/h 91 % 0 mm
10:32 -15.7 °C -16.4 °C 34428.8 hPa NW 7.7 km/h 33.6 km/h 91 % 0 mm
10:42 -15.7 °C -16.6 °C 34442.4 hPa West 5.1 km/h 31.1 km/h 90 % 0 mm
10:52 -15.7 °C -16.5 °C 34442.4 hPa NW 15.6 km/h 28.5 km/h 90 % 0 mm
11:02 -15.6 °C -16.4 °C 34452.6 hPa NW 15.6 km/h 31.1 km/h 90 % 0 mm
11:07 -15.5 °C -16.3 °C 34452.6 hPa NW 12.9 km/h 25.9 km/h 90 % 0 mm
11:12 -15.6 °C -16.4 °C 34462.7 hPa NW 15.6 km/h 25.9 km/h 89 % 0 mm
11:17 -15.6 °C -16.4 °C 34462.7 hPa NW 15.6 km/h 25.9 km/h 89 % 0 mm
11:27 -15.7 °C -16.6 °C 34462.7 hPa WNW 10.3 km/h 33.6 km/h 89 % 0 mm
11:32 -15.7 °C -16.6 °C 34462.7 hPa NW 18.2 km/h 33.6 km/h 89 % 0 mm
11:42 -15.7 °C -16.6 °C 34462.7 hPa NNW 18.2 km/h 33.6 km/h 89 % 0 mm
11:52 -15.6 °C -16.5 °C 34462.7 hPa NNW 15.6 km/h 38.8 km/h 89 % 0 mm
12:02 -15.5 °C -16.5 °C 34476.3 hPa NNW 15.6 km/h 38.8 km/h 88 % 0 mm
12:12 -15.4 °C -16.6 °C 34476.3 hPa NW 15.6 km/h 28.5 km/h 87 % 0 mm
12:17 -15.4 °C -16.4 °C 34476.3 hPa NNW 5.1 km/h 33.6 km/h 88 % 0 mm
12:22 -15.4 °C -16.4 °C 34476.3 hPa WNW 15.6 km/h 33.6 km/h 88 % 0 mm
12:27 -15.4 °C -16.5 °C 34476.3 hPa NNW 18.2 km/h 33.6 km/h 87 % 0 mm
12:32 -15.3 °C -16.4 °C 34476.3 hPa NNW 5.1 km/h 33.6 km/h 87 % 0 mm
12:37 -15.2 °C -16.3 °C 34476.3 hPa North 15.6 km/h 28.5 km/h 87 % 0 mm
12:42 -15.2 °C -16.3 °C 34486.4 hPa NNW 10.3 km/h 28.5 km/h 87 % 0 mm
12:47 -15.2 °C -16.4 °C 34486.4 hPa NW 5.1 km/h 28.5 km/h 86 % 0 mm
12:52 -15.2 °C -16.3 °C 34486.4 hPa NNW 7.7 km/h 28.5 km/h 87 % 0 mm
13:02 -15.3 °C -16.4 °C 34486.4 hPa North 5.1 km/h 20.8 km/h 86 % 0 mm
13:12 -15.3 °C -16.6 °C 34486.4 hPa NNW 7.7 km/h 28.5 km/h 85 % 0 mm
13:17 -15.3 °C -16.6 °C 34486.4 hPa North 7.7 km/h 33.6 km/h 85 % 0 mm
13:22 -15.3 °C -16.6 °C 34486.4 hPa NNW 12.9 km/h 33.6 km/h 85 % 0 mm
13:32 -15.3 °C -16.6 °C 34496.6 hPa North 2.6 km/h 28.5 km/h 85 % 0 mm
13:37 -15.3 °C -16.6 °C 34496.6 hPa NNE 12.9 km/h 28.5 km/h 85 % 0 mm
13:42 -15.3 °C -16.6 °C 34496.6 hPa NNW 10.3 km/h 28.5 km/h 85 % 0 mm
13:52 -15.3 °C -16.6 °C 34496.6 hPa North 7.7 km/h 15.6 km/h 85 % 0 mm
13:57 -15.3 °C -16.6 °C 34496.6 hPa NW 7.7 km/h 18.2 km/h 85 % 0 mm
14:02 -15.3 °C -16.5 °C 34496.6 hPa NW 5.1 km/h 18.2 km/h 86 % 0 mm
14:12 -15.6 °C -16.6 °C 34496.6 hPa WNW 10.3 km/h 20.8 km/h 88 % 0 mm
14:17 -15.7 °C -16.6 °C 34496.6 hPa NW 5.1 km/h 33.6 km/h 89 % 7.62 mm
14:22 -15.6 °C -16.4 °C 34510.1 hPa NW 2.6 km/h 20.8 km/h 90 % 7.62 mm
14:32 -15.6 °C -16.6 °C 34496.6 hPa NW 7.7 km/h 20.8 km/h 88 % 7.62 mm
14:42 -15.7 °C -16.7 °C 34510.1 hPa North 7.7 km/h 25.9 km/h 88 % 7.62 mm
14:47 -15.6 °C -16.5 °C 34510.1 hPa North 2.6 km/h 25.9 km/h 89 % 7.62 mm
14:52 -15.6 °C -16.5 °C 34510.1 hPa North 2.6 km/h 12.9 km/h 89 % 7.62 mm
14:57 -15.6 °C -16.5 °C 34510.1 hPa Calm   10.3 km/h 89 % 7.62 mm
15:02 -15.6 °C -16.4 °C 34510.1 hPa NW 20.8 km/h 20.8 km/h 90 % 7.62 mm
15:12 -15.7 °C -16.7 °C 34520.3 hPa WNW 10.3 km/h 36.2 km/h 88 % 0 mm
15:17 -15.7 °C -16.6 °C 34520.3 hPa WNW 15.6 km/h 36.2 km/h 89 % 0 mm
15:22 -15.6 °C -16.5 °C 34520.3 hPa WNW 7.7 km/h 23.3 km/h 89 % 0 mm
15:32 -15.4 °C -16.3 °C 34520.3 hPa WNW 2.6 km/h 18.2 km/h 89 % 0 mm
15:37 -15.3 °C -16.3 °C 34533.8 hPa NW 5.1 km/h 18.2 km/h 88 % 0 mm
15:42 -15.2 °C -16.3 °C 34533.8 hPa WNW 12.9 km/h 18.2 km/h 87 % 0 mm
15:47 -15.2 °C -16.3 °C 34533.8 hPa WNW 12.9 km/h 18.2 km/h 86 % 0 mm
15:52 -15.2 °C -16.3 °C 34533.8 hPa WNW 10.3 km/h 18.2 km/h 86 % 0 mm
15:57 -15.1 °C -16.7 °C 34533.8 hPa WNW 12.9 km/h 25.9 km/h 82 % 0 mm
16:02 -15.1 °C -16.8 °C 34533.8 hPa NW 15.6 km/h 25.9 km/h 81 % 0 mm
16:12 -15.2 °C -17 °C 34533.8 hPa WNW 5.1 km/h 31.1 km/h 79 % 0 mm
16:17 -15.2 °C -17 °C 34544 hPa West 15.6 km/h 23.3 km/h 80 % 0 mm
16:22 -15.3 °C -17 °C 34544 hPa WNW 7.7 km/h 23.3 km/h 80 % 0 mm
16:27 -15.2 °C -16.9 °C 34544 hPa NW 5.1 km/h 23.3 km/h 81 % 0 mm
16:37 -15.2 °C -17 °C 34554.1 hPa NW 7.7 km/h 15.6 km/h 80 % 0 mm
16:42 -15.3 °C -17 °C 34554.1 hPa WNW 10.3 km/h 15.6 km/h 80 % 0 mm
16:52 -15.4 °C -17.1 °C 34554.1 hPa NW 10.3 km/h 15.6 km/h 81 % 0 mm
16:57 -15.4 °C -17.1 °C 34554.1 hPa Calm   15.6 km/h 81 % 0 mm
17:02 -15.6 °C -17.1 °C 34567.7 hPa NW 5.1 km/h 12.9 km/h 82 % 0 mm
17:07 -15.6 °C -17.2 °C 34567.7 hPa WNW 2.6 km/h 12.9 km/h 82 % 0 mm
17:17 -15.8 °C -17.2 °C 34567.7 hPa Calm   7.7 km/h 83 % 0 mm
17:22 -15.9 °C -17.2 °C 34577.8 hPa WNW 2.6 km/h 7.7 km/h 84 % 0 mm
17:27 -16 °C -17.3 °C 34577.8 hPa WNW 5.1 km/h 7.7 km/h 85 % 0 mm
17:37 -16 °C -17.3 °C 34577.8 hPa WNW 7.7 km/h 15.6 km/h 84 % 0 mm
17:42 -16.1 °C -17.4 °C 34577.8 hPa Calm   15.6 km/h 84 % 0 mm
17:52 -16.1 °C -17.4 °C 34591.4 hPa WNW 2.6 km/h 10.3 km/h 85 % 0 mm
18:02 -16.2 °C -17.4 °C 34591.4 hPa NW 7.7 km/h 10.3 km/h 85 % 0 mm
18:07 -16.2 °C -17.4 °C 34591.4 hPa WNW 5.1 km/h 12.9 km/h 86 % 0 mm
18:17 -16.3 °C -17.4 °C 34601.5 hPa NW 5.1 km/h 12.9 km/h 87 % 0 mm
18:22 -16.3 °C -17.4 °C 34601.5 hPa WNW 7.7 km/h 10.3 km/h 87 % 0 mm
18:32 -16.3 °C -17.4 °C 34601.5 hPa NW 12.9 km/h 12.9 km/h 87 % 0 mm
18:37 -16.3 °C -17.4 °C 34601.5 hPa WNW 7.7 km/h 15.6 km/h 87 % 0 mm
18:42 -16.3 °C -17.4 °C 34601.5 hPa WNW 5.1 km/h 18.2 km/h 87 % 0 mm
18:47 -16.4 °C -17.4 °C 34601.5 hPa WNW 7.7 km/h 18.2 km/h 87 % 0 mm
18:52 -16.4 °C -17.4 °C 34611.7 hPa WNW 2.6 km/h 15.6 km/h 88 % 0 mm
18:57 -16.4 °C -17.4 °C 34611.7 hPa NW 7.7 km/h 15.6 km/h 88 % 0 mm
19:02 -16.5 °C -17.5 °C 34611.7 hPa NW 7.7 km/h 15.6 km/h 88 % 0 mm
19:07 -16.5 °C -17.4 °C 34611.7 hPa NW 2.6 km/h 15.6 km/h 89 % 0 mm
19:12 -16.5 °C -17.4 °C 34611.7 hPa West 2.6 km/h 12.9 km/h 89 % 0 mm
19:22 -16.4 °C -17.3 °C 34625.2 hPa WNW 5.1 km/h 20.8 km/h 89 % 0 mm
19:32 -16.4 °C -17.3 °C 34625.2 hPa WNW 23.3 km/h 23.3 km/h 89 % 0 mm
19:37 -16.5 °C -17.4 °C 34625.2 hPa WNW 12.9 km/h 28.5 km/h 89 % 0 mm
19:42 -16.5 °C -17.4 °C 34625.2 hPa NW 15.6 km/h 28.5 km/h 89 % 0 mm
19:47 -16.5 °C -17.4 °C 34625.2 hPa NW 18.2 km/h 28.5 km/h 89 % 0 mm
19:52 -16.5 °C -17.4 °C 34625.2 hPa WNW 18.2 km/h 28.5 km/h 89 % 0 mm
19:57 -16.6 °C -17.4 °C 34625.2 hPa WNW 7.7 km/h 25.9 km/h 89 % 0 mm
20:07 -16.6 °C -17.5 °C 34635.4 hPa West 5.1 km/h 20.8 km/h 89 % 0 mm
20:12 -16.6 °C -17.4 °C 34635.4 hPa NW 18.2 km/h 23.3 km/h 90 % 0 mm
20:17 -16.6 °C -17.4 °C 34635.4 hPa WNW 7.7 km/h 23.3 km/h 90 % 0 mm
20:22 -16.6 °C -17.4 °C 34645.6 hPa WNW 12.9 km/h 23.3 km/h 90 % 0 mm
20:27 -16.7 °C -17.5 °C 34645.6 hPa WNW 7.7 km/h 23.3 km/h 90 % 0 mm
20:32 -16.7 °C -17.6 °C 34645.6 hPa WNW 10.3 km/h 23.3 km/h 90 % 0 mm
20:37 -16.8 °C -17.5 °C 34645.6 hPa NW 12.9 km/h 18.2 km/h 91 % 0 mm
20:47 -16.8 °C -17.5 °C 34645.6 hPa NW 7.7 km/h 20.8 km/h 91 % 0 mm
20:52 -16.8 °C -17.5 °C 34659.1 hPa WNW 12.9 km/h 20.8 km/h 91 % 0 mm
20:57 -16.8 °C -17.5 °C 34659.1 hPa WNW 12.9 km/h 20.8 km/h 91 % 0 mm
21:02 -16.8 °C -17.5 °C 34669.3 hPa WNW 15.6 km/h 20.8 km/h 91 % 0 mm
21:07 -16.8 °C -17.5 °C 34669.3 hPa West 5.1 km/h 23.3 km/h 91 % 0 mm
21:12 -16.8 °C -17.6 °C 34669.3 hPa NW 10.3 km/h 23.3 km/h 90 % 0 mm
21:17 -16.8 °C -17.5 °C 34669.3 hPa WNW 15.6 km/h 20.8 km/h 91 % 0 mm
21:22 -16.8 °C -17.5 °C 34682.8 hPa West 7.7 km/h 20.8 km/h 91 % 0 mm
21:27 -16.7 °C -17.4 °C 34682.8 hPa WNW 10.3 km/h 18.2 km/h 91 % 0 mm
21:32 -16.7 °C -17.6 °C 34682.8 hPa WNW 10.3 km/h 18.2 km/h 90 % 0 mm
21:42 -16.8 °C -17.6 °C 34669.3 hPa WNW 10.3 km/h 18.2 km/h 90 % 0 mm
21:52 -16.8 °C -17.5 °C 34682.8 hPa WNW 10.3 km/h 15.6 km/h 91 % 0 mm
21:57 -16.8 °C -17.6 °C 34682.8 hPa NW 10.3 km/h 12.9 km/h 91 % 0 mm
22:02 -16.8 °C -17.6 °C 34669.3 hPa West 5.1 km/h 12.9 km/h 91 % 0 mm
22:07 -16.8 °C -17.6 °C 34682.8 hPa WNW 7.7 km/h 12.9 km/h 91 % 0 mm
22:12 -16.8 °C -17.6 °C 34669.3 hPa NW 7.7 km/h 12.9 km/h 91 % 0 mm
22:17 -16.8 °C -17.6 °C 34669.3 hPa WNW 10.3 km/h 15.6 km/h 91 % 0 mm
22:22 -16.8 °C -17.6 °C 34682.8 hPa WNW 12.9 km/h 20.8 km/h 91 % 0 mm
22:32 -16.9 °C -17.7 °C 34682.8 hPa WNW 2.6 km/h 20.8 km/h 90 % 0 mm
22:37 -16.9 °C -17.6 °C 34682.8 hPa WNW 2.6 km/h 18.2 km/h 91 % 0 mm
22:42 -16.9 °C -17.6 °C 34682.8 hPa WNW 7.7 km/h 18.2 km/h 91 % 0 mm
22:47 -16.9 °C -17.6 °C 34682.8 hPa WNW 5.1 km/h 18.2 km/h 91 % 0 mm
22:52 -16.9 °C -17.7 °C 34682.8 hPa NW 2.6 km/h 18.2 km/h 91 % 0 mm
22:57 -16.9 °C -17.7 °C 34682.8 hPa WNW 5.1 km/h 12.9 km/h 91 % 0 mm
23:02 -17 °C -17.7 °C 34682.8 hPa WNW 15.6 km/h 15.6 km/h 91 % 0 mm
23:07 -17 °C -17.7 °C 34682.8 hPa West 7.7 km/h 15.6 km/h 91 % 0 mm
23:12 -16.9 °C -17.7 °C 34682.8 hPa WNW 7.7 km/h 15.6 km/h 91 % 0 mm
23:22 -16.9 °C -17.7 °C 34693 hPa WNW 7.7 km/h 15.6 km/h 91 % 0 mm
23:27 -16.9 °C -17.7 °C 34693 hPa WNW 2.6 km/h 15.6 km/h 91 % 0 mm
23:32 -17 °C -17.7 °C 34703.1 hPa WNW 2.6 km/h 15.6 km/h 91 % 0 mm
23:37 -17 °C -17.7 °C 34703.1 hPa WNW 7.7 km/h 15.6 km/h 91 % 0 mm
23:42 -16.9 °C -17.7 °C 34703.1 hPa West 10.3 km/h 20.8 km/h 91 % 0 mm
23:47 -16.9 °C -17.6 °C 34693 hPa WNW 2.6 km/h 20.8 km/h 91 % 0 mm
23:57 -16.9 °C -17.6 °C 34693 hPa Calm   12.9 km/h 91 % 0 mm
Meteo18
Compliments of Weather Underground - 4 mb

Script developed by  Jim McMurry - jmcmurry@mwt.net Adapted for the template by  Wim van der Kuil - Leuven-Template.eu

You find our weather info also at:

European Weather Network

Weather Underground

Equipment we use:

Weather-station
Davis Vue

Weather-program
Meteobridge

Weather-server
Raspberry PI 2 B+

Provider
1 and 1

Davis Vue

Meteobridge

Raspberry PI 2 B+

1 and 1